createdAt,value
2022-09-14T00:01:25.719Z,50.18
2022-09-14T00:03:27.680Z,50.74
2022-09-14T00:05:29.262Z,50.23
2022-09-14T00:07:30.826Z,50.14
2022-09-14T00:09:32.856Z,49.60
2022-09-14T00:11:36.365Z,52.04
2022-09-14T00:13:39.487Z,49.82
2022-09-14T00:15:45.141Z,50.78
2022-09-14T00:17:46.655Z,50.44
2022-09-14T00:19:48.995Z,51.93
2022-09-14T00:21:53.353Z,51.05
2022-09-14T00:23:54.883Z,48.75
2022-09-14T00:25:56.482Z,50.17
2022-09-14T00:27:58.382Z,48.51
2022-09-14T00:29:59.909Z,49.87
2022-09-14T00:32:01.907Z,49.80
2022-09-14T00:34:05.406Z,49.42
2022-09-14T00:36:26.617Z,48.79
2022-09-14T00:38:28.203Z,50.14
2022-09-14T00:40:30.194Z,47.63
2022-09-14T00:42:32.127Z,47.73
2022-09-14T00:44:33.598Z,47.73
2022-09-14T00:46:43.725Z,49.19
2022-09-14T00:48:45.422Z,48.90
2022-09-14T00:50:47.980Z,48.69
2022-09-14T00:52:50.659Z,49.43
2022-09-14T00:54:57.992Z,48.32
2022-09-14T00:57:02.949Z,48.93
2022-09-14T00:59:11.623Z,49.57
2022-09-14T01:01:13.694Z,50.05
2022-09-14T01:03:15.319Z,48.98
2022-09-14T01:05:17.970Z,49.47
2022-09-14T01:07:52.823Z,50.23
2022-09-14T01:10:03.461Z,49.39
2022-09-14T01:12:45.305Z,51.70
2022-09-14T01:15:23.406Z,51.90
2022-09-14T01:17:36.002Z,49.74
2022-09-14T01:19:40.408Z,49.68
2022-09-14T01:21:44.224Z,51.11
2022-09-14T01:24:02.375Z,49.25
2022-09-14T01:26:36.259Z,49.49
2022-09-14T01:29:02.113Z,50.45
2022-09-14T01:31:09.228Z,48.21
2022-09-14T01:33:20.851Z,50.33
2022-09-14T01:35:35.892Z,50.43
2022-09-14T01:38:04.978Z,48.70
2022-09-14T01:40:39.468Z,46.73
2022-09-14T01:42:45.412Z,47.09
2022-09-14T01:44:52.154Z,47.00
2022-09-14T01:46:57.312Z,46.72
2022-09-14T01:49:04.184Z,47.20
2022-09-14T01:51:12.635Z,49.46
2022-09-14T01:53:22.577Z,50.07
2022-09-14T01:55:33.416Z,50.53
2022-09-14T01:58:26.696Z,48.78
2022-09-14T02:00:28.657Z,48.12
2022-09-14T02:02:40.610Z,49.28
2022-09-14T02:05:21.426Z,48.59
2022-09-14T02:07:23.754Z,49.05
2022-09-14T02:09:26.977Z,49.87
2022-09-14T02:11:28.735Z,48.64
2022-09-14T02:13:30.525Z,49.46
2022-09-14T02:15:32.235Z,48.80
2022-09-14T02:17:33.996Z,53.03
2022-09-14T02:19:41.891Z,54.40
2022-09-14T02:21:43.979Z,50.28
2022-09-14T02:23:48.090Z,49.35
2022-09-14T02:25:50.007Z,54.23
2022-09-14T02:27:52.552Z,56.24
2022-09-14T02:29:54.348Z,51.12
2022-09-14T02:32:12.615Z,50.98
2022-09-14T02:34:28.384Z,50.15
2022-09-14T02:36:51.274Z,50.08
2022-09-14T02:39:07.062Z,50.08
2022-09-14T02:41:14.385Z,49.53
2022-09-14T02:43:28.069Z,49.71
2022-09-14T02:45:58.441Z,49.55
2022-09-14T02:48:21.545Z,48.36
2022-09-14T02:50:35.212Z,49.00
2022-09-14T02:53:06.671Z,49.34
2022-09-14T02:55:12.893Z,52.09
2022-09-14T02:57:14.468Z,54.30
2022-09-14T02:59:16.829Z,50.65
2022-09-14T03:01:20.733Z,49.20
2022-09-14T03:03:22.355Z,49.39
2022-09-14T03:05:24.305Z,51.24
2022-09-14T03:07:25.827Z,50.43
2022-09-14T03:09:27.500Z,50.17
2022-09-14T03:11:29.115Z,49.18
2022-09-14T03:13:30.672Z,49.67
2022-09-14T03:15:32.326Z,49.90
2022-09-14T03:17:33.854Z,49.09
2022-09-14T03:19:35.378Z,50.21
2022-09-14T03:21:38.919Z,49.97
2022-09-14T03:23:46.440Z,50.03
2022-09-14T03:25:48.011Z,48.60
2022-09-14T03:27:51.264Z,51.69
2022-09-14T03:29:52.814Z,52.26
2022-09-14T03:31:54.411Z,53.76
2022-09-14T03:33:57.940Z,56.61
2022-09-14T03:36:00.031Z,55.29
2022-09-14T03:38:03.184Z,53.94
2022-09-14T03:40:06.320Z,54.05
2022-09-14T03:42:07.868Z,51.19
2022-09-14T03:44:10.280Z,50.34
2022-09-14T03:46:23.624Z,50.79
2022-09-14T03:48:25.146Z,51.15
2022-09-14T03:50:26.655Z,51.16
2022-09-14T03:52:28.307Z,52.27
2022-09-14T03:54:29.852Z,51.35
2022-09-14T03:56:31.366Z,51.10
2022-09-14T03:58:33.228Z,50.47
2022-09-14T04:00:34.893Z,51.34
2022-09-14T04:02:36.542Z,56.11
2022-09-14T04:04:38.249Z,50.94
2022-09-14T04:06:39.763Z,50.85
2022-09-14T04:08:42.450Z,51.37
2022-09-14T04:10:44.017Z,50.63
2022-09-14T04:12:45.601Z,49.81
2022-09-14T04:14:47.131Z,49.07
2022-09-14T04:16:48.744Z,48.43
2022-09-14T04:18:50.335Z,48.92
2022-09-14T04:20:59.180Z,49.34
2022-09-14T04:23:00.739Z,49.39
2022-09-14T04:25:02.559Z,49.03
2022-09-14T04:27:04.227Z,48.88
2022-09-14T04:29:05.973Z,49.26
2022-09-14T04:31:09.862Z,48.70
2022-09-14T04:33:11.401Z,48.46
2022-09-14T04:35:13.030Z,48.05
2022-09-14T04:37:14.610Z,48.38
2022-09-14T04:39:16.751Z,47.99
2022-09-14T04:41:20.586Z,48.41
2022-09-14T04:43:22.635Z,48.15
2022-09-14T04:45:24.227Z,48.56
2022-09-14T04:47:25.794Z,49.74
2022-09-14T04:49:27.312Z,49.28
2022-09-14T04:51:31.098Z,49.08
2022-09-14T04:53:37.638Z,48.39
2022-09-14T04:55:39.205Z,48.74
2022-09-14T04:57:40.731Z,48.61
2022-09-14T04:59:42.281Z,49.56
2022-09-14T05:01:47.484Z,48.63
2022-09-14T05:03:50.737Z,49.28
2022-09-14T05:05:52.274Z,48.83
2022-09-14T05:07:53.777Z,49.80
2022-09-14T05:09:55.286Z,50.30
2022-09-14T05:11:56.830Z,51.57
2022-09-14T05:14:00.665Z,49.70
2022-09-14T05:16:10.841Z,48.93
2022-09-14T05:18:12.744Z,50.24
2022-09-14T05:20:14.328Z,49.37
2022-09-14T05:22:16.125Z,49.90
2022-09-14T05:24:18.920Z,49.92
2022-09-14T05:26:20.520Z,50.57
2022-09-14T05:28:22.123Z,50.35
2022-09-14T05:30:23.766Z,50.61
2022-09-14T05:32:25.336Z,51.69
2022-09-14T05:34:26.969Z,50.42
2022-09-14T05:36:28.711Z,50.52
2022-09-14T05:38:31.622Z,52.75
2022-09-14T05:40:33.259Z,51.86
2022-09-14T05:42:35.519Z,51.40
2022-09-14T05:44:37.094Z,50.46
2022-09-14T05:46:38.802Z,51.04
2022-09-14T05:48:41.192Z,50.56
2022-09-14T05:50:43.418Z,50.60
2022-09-14T05:52:45.035Z,50.58
2022-09-14T05:54:46.620Z,51.99
2022-09-14T05:56:48.341Z,51.60
2022-09-14T05:58:50.739Z,51.13
2022-09-14T06:00:52.343Z,54.33
2022-09-14T06:02:54.804Z,52.05
2022-09-14T06:04:56.417Z,50.28
2022-09-14T06:07:17.425Z,50.54
2022-09-14T06:09:19.650Z,49.92
2022-09-14T06:11:24.852Z,51.09
2022-09-14T06:13:26.510Z,53.17
2022-09-14T06:15:28.082Z,52.06
2022-09-14T06:17:31.277Z,53.69
2022-09-14T06:19:32.935Z,52.21
2022-09-14T06:21:35.098Z,53.02
2022-09-14T06:23:36.936Z,52.61
2022-09-14T06:25:38.527Z,51.59
2022-09-14T06:27:40.087Z,51.04
2022-09-14T06:29:42.088Z,53.02
2022-09-14T06:31:43.708Z,50.57
2022-09-14T06:33:46.381Z,51.89
2022-09-14T06:35:59.791Z,49.99
2022-09-14T06:38:01.393Z,51.94
2022-09-14T06:40:04.390Z,50.99
2022-09-14T06:42:06.174Z,50.75
2022-09-14T06:44:07.899Z,50.45
2022-09-14T06:46:19.960Z,50.94
2022-09-14T06:48:21.533Z,51.32
2022-09-14T06:50:23.151Z,51.89
2022-09-14T06:52:24.728Z,51.08
2022-09-14T06:54:27.076Z,52.58
2022-09-14T06:56:31.341Z,50.85
2022-09-14T06:58:34.243Z,53.06
2022-09-14T07:00:36.502Z,51.78
2022-09-14T07:02:38.173Z,51.78
2022-09-14T07:04:39.775Z,52.03
2022-09-14T07:06:44.240Z,51.11
2022-09-14T07:08:45.853Z,53.85
2022-09-14T07:10:56.038Z,57.65
2022-09-14T07:13:00.456Z,57.55
2022-09-14T07:15:02.089Z,53.83
2022-09-14T07:17:04.138Z,54.15
2022-09-14T07:19:13.643Z,53.21
2022-09-14T07:21:19.092Z,53.03
2022-09-14T07:23:21.501Z,51.79
2022-09-14T07:25:23.136Z,52.09
2022-09-14T07:27:24.760Z,52.99
2022-09-14T07:29:26.439Z,51.37
2022-09-14T07:31:28.029Z,51.07
2022-09-14T07:33:30.070Z,51.17
2022-09-14T07:35:32.715Z,52.56
2022-09-14T07:37:34.460Z,53.67
2022-09-14T07:39:36.479Z,53.02
2022-09-14T07:41:38.441Z,54.21
2022-09-14T07:43:40.158Z,53.69
2022-09-14T07:45:41.801Z,54.70
2022-09-14T07:47:43.623Z,53.45
2022-09-14T07:49:45.268Z,53.33
2022-09-14T07:51:46.934Z,52.70
2022-09-14T07:53:48.506Z,53.07
2022-09-14T07:55:50.115Z,54.14
2022-09-14T07:57:56.668Z,52.84
2022-09-14T07:59:59.116Z,52.95
2022-09-14T08:02:00.840Z,53.63
2022-09-14T08:04:05.502Z,54.34
2022-09-14T08:06:09.755Z,54.14
2022-09-14T08:08:11.319Z,54.81
2022-09-14T08:10:13.551Z,54.87
2022-09-14T08:12:16.292Z,55.36
2022-09-14T08:14:17.943Z,55.51
2022-09-14T08:16:20.640Z,54.31
2022-09-14T08:18:22.211Z,54.43
2022-09-14T08:20:23.775Z,56.04
2022-09-14T08:22:26.021Z,55.39
2022-09-14T08:24:27.636Z,58.59
2022-09-14T08:26:29.641Z,58.63
2022-09-14T08:28:31.536Z,54.90
2022-09-14T08:30:33.625Z,55.92
2022-09-14T08:32:35.394Z,55.36
2022-09-14T08:34:36.991Z,54.88
2022-09-14T08:36:41.298Z,56.14
2022-09-14T08:38:42.944Z,57.87
2022-09-14T08:40:46.016Z,58.27
2022-09-14T08:42:49.077Z,57.03
2022-09-14T08:44:56.553Z,56.86
2022-09-14T08:47:10.117Z,58.71
2022-09-14T08:49:19.226Z,60.68
2022-09-14T08:51:21.308Z,61.47
2022-09-14T08:53:25.327Z,62.00
2022-09-14T08:55:37.528Z,62.44
2022-09-14T08:57:45.672Z,58.38
2022-09-14T09:00:10.976Z,55.24
2022-09-14T09:02:42.761Z,55.71
2022-09-14T09:04:56.291Z,57.81
2022-09-14T09:07:32.881Z,55.62
2022-09-14T09:09:49.586Z,56.12
2022-09-14T09:11:53.639Z,57.95
2022-09-14T09:13:56.766Z,55.52
2022-09-14T09:16:02.284Z,59.59
2022-09-14T09:18:12.628Z,57.47
2022-09-14T09:20:24.669Z,56.81
2022-09-14T09:22:30.342Z,56.52
2022-09-14T09:24:42.960Z,56.62
2022-09-14T09:26:44.705Z,56.39
2022-09-14T09:28:52.478Z,56.32
2022-09-14T09:31:11.427Z,56.26
2022-09-14T09:33:21.765Z,54.67
2022-09-14T09:35:24.839Z,57.50
2022-09-14T09:37:26.479Z,55.57
2022-09-14T09:39:31.217Z,56.27
2022-09-14T09:41:50.405Z,57.59
2022-09-14T09:44:00.516Z,55.00
2022-09-14T09:46:07.652Z,58.78
2022-09-14T09:48:10.647Z,56.70
2022-09-14T09:50:20.397Z,57.07
2022-09-14T09:52:22.277Z,55.07
2022-09-14T09:54:32.402Z,56.65
2022-09-14T09:56:37.787Z,56.71
2022-09-14T09:58:39.743Z,57.07
2022-09-14T10:00:41.467Z,54.80
2022-09-14T10:02:43.121Z,53.70
2022-09-14T10:05:10.271Z,54.28
2022-09-14T10:07:22.721Z,54.97
2022-09-14T10:09:29.796Z,53.45
2022-09-14T10:11:37.663Z,56.96
2022-09-14T10:13:41.016Z,54.73
2022-09-14T10:15:43.601Z,53.12
2022-09-14T10:17:58.213Z,55.17
2022-09-14T10:20:00.056Z,53.65
2022-09-14T10:22:17.538Z,55.57
2022-09-14T10:24:20.581Z,55.00
2022-09-14T10:26:25.821Z,52.95
2022-09-14T10:28:33.954Z,52.45
2022-09-14T10:30:45.400Z,53.62
2022-09-14T10:32:55.417Z,54.56
2022-09-14T10:34:59.550Z,54.69
2022-09-14T10:37:18.849Z,51.07
2022-09-14T10:39:35.228Z,54.88
2022-09-14T10:41:50.096Z,53.51
2022-09-14T10:44:10.256Z,50.87
2022-09-14T10:46:16.793Z,50.91
2022-09-14T10:48:35.706Z,53.89
2022-09-14T10:50:46.145Z,51.19
2022-09-14T10:53:06.600Z,50.08
2022-09-14T10:55:49.999Z,53.05
2022-09-14T10:57:51.506Z,52.11
2022-09-14T11:00:04.703Z,51.55
2022-09-14T11:03:51.511Z,54.35
2022-09-14T11:06:03.957Z,52.98
2022-09-14T11:08:30.067Z,52.83
2022-09-14T11:10:40.601Z,51.85
2022-09-14T11:12:52.155Z,52.08
2022-09-14T11:14:53.611Z,52.14
2022-09-14T11:17:17.028Z,50.49
2022-09-14T11:19:27.940Z,49.66
2022-09-14T11:21:56.772Z,49.06
2022-09-14T11:24:43.761Z,53.10
2022-09-14T11:27:00.523Z,51.30
2022-09-14T11:29:21.234Z,50.58
2022-09-14T11:31:31.449Z,50.62
2022-09-14T11:34:06.737Z,50.77
2022-09-14T11:36:19.646Z,53.12
2022-09-14T11:38:28.580Z,52.99
2022-09-14T11:40:37.821Z,51.44
2022-09-14T11:42:49.147Z,50.09
2022-09-14T11:45:03.358Z,49.82
2022-09-14T11:47:14.030Z,50.81
2022-09-14T11:49:22.167Z,49.61
2022-09-14T11:51:32.799Z,50.25
2022-09-14T11:53:36.018Z,50.15
2022-09-14T11:55:41.806Z,50.02
2022-09-14T11:57:46.347Z,50.08
2022-09-14T11:59:59.776Z,49.68
2022-09-14T12:02:23.133Z,48.90
2022-09-14T12:04:24.907Z,50.40
2022-09-14T12:06:36.784Z,50.06
2022-09-14T12:08:39.833Z,49.71
2022-09-14T12:11:04.598Z,49.31
2022-09-14T12:13:06.206Z,51.34
2022-09-14T12:15:26.214Z,57.01
2022-09-14T12:17:41.445Z,55.79
2022-09-14T12:19:47.982Z,57.30
2022-09-14T12:21:49.812Z,58.52
2022-09-14T12:24:00.615Z,57.54
2022-09-14T12:26:12.532Z,64.24
2022-09-14T12:28:38.327Z,68.81
2022-09-14T12:30:41.156Z,66.34
2022-09-14T12:32:44.299Z,67.44
2022-09-14T12:34:46.495Z,67.08
2022-09-14T12:36:48.537Z,65.15
2022-09-14T12:38:50.192Z,66.26
2022-09-14T12:40:51.914Z,65.07
2022-09-14T12:42:53.516Z,64.00
2022-09-14T12:44:55.579Z,66.90
2022-09-14T12:46:57.474Z,64.71
2022-09-14T12:49:03.432Z,63.43
2022-09-14T12:51:05.852Z,63.27
2022-09-14T12:53:27.865Z,62.92
2022-09-14T12:55:51.121Z,63.29
2022-09-14T12:58:23.284Z,62.36
2022-09-14T13:00:27.002Z,62.67
2022-09-14T13:03:00.685Z,60.20
2022-09-14T13:05:03.199Z,61.16
2022-09-14T13:07:13.553Z,58.61
2022-09-14T13:09:23.596Z,60.53
2022-09-14T13:11:31.536Z,59.00
2022-09-14T13:13:33.692Z,58.40
2022-09-14T13:15:44.725Z,60.75
2022-09-14T13:18:18.871Z,58.87
2022-09-14T13:20:21.650Z,58.06
2022-09-14T13:22:26.107Z,58.03
2022-09-14T13:24:36.633Z,57.52
2022-09-14T13:26:38.599Z,58.84
2022-09-14T13:28:44.760Z,59.83
2022-09-14T13:30:59.106Z,59.50
2022-09-14T13:33:01.322Z,62.82
2022-09-14T13:35:06.759Z,60.24
2022-09-14T13:37:14.641Z,58.29
2022-09-14T13:39:38.723Z,55.21
2022-09-14T13:41:44.190Z,57.91
2022-09-14T13:43:47.515Z,54.23
2022-09-14T13:45:51.713Z,54.06
2022-09-14T13:47:54.428Z,59.04
2022-09-14T13:49:56.721Z,61.19
2022-09-14T13:52:28.098Z,59.41
2022-09-14T13:54:36.513Z,57.11
2022-09-14T13:56:38.111Z,57.68
2022-09-14T13:58:39.719Z,55.12
2022-09-14T14:00:59.106Z,57.22
2022-09-14T14:03:03.359Z,57.43
2022-09-14T14:05:06.255Z,60.71
2022-09-14T14:07:13.799Z,56.49
2022-09-14T14:09:16.229Z,57.70
2022-09-14T14:11:28.062Z,60.81
2022-09-14T14:13:32.628Z,60.92
2022-09-14T14:15:40.909Z,62.68
2022-09-14T14:17:42.748Z,61.50
2022-09-14T14:19:44.373Z,59.82
2022-09-14T14:21:49.139Z,61.07
2022-09-14T14:24:15.705Z,61.40
2022-09-14T14:26:27.448Z,62.50
2022-09-14T14:28:30.342Z,61.72
2022-09-14T14:30:41.589Z,61.09
2022-09-14T14:32:43.495Z,62.14
2022-09-14T14:34:45.057Z,60.18
2022-09-14T14:36:49.956Z,62.61
2022-09-14T14:38:51.660Z,64.26
2022-09-14T14:40:55.623Z,63.21
2022-09-14T14:42:58.570Z,62.12
2022-09-14T14:45:00.701Z,61.88
2022-09-14T14:47:02.372Z,61.04
2022-09-14T14:49:04.055Z,60.75
2022-09-14T14:51:06.403Z,59.94
2022-09-14T14:53:07.999Z,56.90
2022-09-14T14:55:11.118Z,60.27
2022-09-14T14:57:12.776Z,64.88
2022-09-14T14:59:26.820Z,64.36
2022-09-14T15:01:28.686Z,63.08
2022-09-14T15:03:30.354Z,62.03
2022-09-14T15:05:32.350Z,62.39
2022-09-14T15:07:37.616Z,63.96
2022-09-14T15:09:39.535Z,63.41
2022-09-14T15:11:41.368Z,63.94
2022-09-14T15:13:42.970Z,64.74
2022-09-14T15:15:45.018Z,61.58
2022-09-14T15:17:46.796Z,62.15
2022-09-14T15:19:48.647Z,62.75
2022-09-14T15:21:50.210Z,61.38
2022-09-14T15:23:51.829Z,61.47
2022-09-14T15:25:53.656Z,59.95
2022-09-14T15:27:55.220Z,64.15
2022-09-14T15:29:57.307Z,65.06
2022-09-14T15:31:59.028Z,62.80
2022-09-14T15:34:00.904Z,63.35
2022-09-14T15:36:03.408Z,62.61
2022-09-14T15:38:05.920Z,62.50
2022-09-14T15:40:08.099Z,63.07
2022-09-14T15:42:09.932Z,63.54
2022-09-14T15:44:15.552Z,62.81
2022-09-14T15:46:17.226Z,60.15
2022-09-14T15:48:19.571Z,60.52
2022-09-14T15:50:21.151Z,60.34
2022-09-14T15:52:22.758Z,60.87
2022-09-14T15:54:26.301Z,59.85
2022-09-14T15:56:28.271Z,61.44
2022-09-14T15:58:30.481Z,56.92
2022-09-14T16:00:32.149Z,57.65
2022-09-14T16:02:33.881Z,57.38
2022-09-14T16:04:39.555Z,55.20
2022-09-14T16:06:41.615Z,55.43
2022-09-14T16:08:43.249Z,55.27
2022-09-14T16:10:45.079Z,58.26
2022-09-14T16:12:46.728Z,58.03
2022-09-14T16:14:48.329Z,55.61
2022-09-14T16:16:49.940Z,55.44
2022-09-14T16:18:51.671Z,56.04
2022-09-14T16:20:53.436Z,55.57
2022-09-14T16:22:55.197Z,54.44
2022-09-14T16:24:56.806Z,52.71
2022-09-14T16:26:59.122Z,52.76
2022-09-14T16:29:00.891Z,54.23
2022-09-14T16:31:07.671Z,53.05
2022-09-14T16:33:09.485Z,53.43
2022-09-14T16:35:11.095Z,55.36
2022-09-14T16:37:12.770Z,59.30
2022-09-14T16:39:19.702Z,56.86
2022-09-14T16:41:21.587Z,55.34
2022-09-14T16:43:23.200Z,54.15
2022-09-14T16:45:24.956Z,52.22
2022-09-14T16:47:26.586Z,53.08
2022-09-14T16:49:28.644Z,52.98
2022-09-14T16:51:30.875Z,52.31
2022-09-14T16:53:37.458Z,52.04
2022-09-14T16:55:39.072Z,51.42
2022-09-14T16:57:40.622Z,52.58
2022-09-14T16:59:42.224Z,52.31
2022-09-14T17:01:45.526Z,54.58
2022-09-14T17:03:49.376Z,53.66
2022-09-14T17:05:51.128Z,53.13
2022-09-14T17:07:52.712Z,52.38
2022-09-14T17:09:54.440Z,51.90
2022-09-14T17:11:57.734Z,51.65
2022-09-14T17:13:59.975Z,51.46
2022-09-14T17:16:07.220Z,51.49
2022-09-14T17:18:08.839Z,51.00
2022-09-14T17:20:10.551Z,52.31
2022-09-14T17:22:13.038Z,51.90
2022-09-14T17:24:16.600Z,51.49
2022-09-14T17:26:20.214Z,53.00
2022-09-14T17:28:24.609Z,53.28
2022-09-14T17:30:26.258Z,53.48
2022-09-14T17:32:27.979Z,51.17
2022-09-14T17:34:29.664Z,53.97
2022-09-14T17:36:31.873Z,52.70
2022-09-14T17:38:39.403Z,51.47
2022-09-14T17:40:41.131Z,51.76
2022-09-14T17:42:43.028Z,51.62
2022-09-14T17:44:44.814Z,51.59
2022-09-14T17:46:52.588Z,51.54
2022-09-14T17:48:58.218Z,51.71
2022-09-14T17:51:04.247Z,55.77
2022-09-14T17:53:05.824Z,55.73
2022-09-14T17:55:07.678Z,54.25
2022-09-14T17:57:09.313Z,53.64
2022-09-14T17:59:14.567Z,58.16
2022-09-14T18:01:19.024Z,55.14
2022-09-14T18:03:20.805Z,51.95
2022-09-14T18:05:22.691Z,53.51
2022-09-14T18:07:24.504Z,51.17
2022-09-14T18:09:26.093Z,50.17
2022-09-14T18:11:29.055Z,50.68
2022-09-14T18:13:30.845Z,51.68
2022-09-14T18:15:34.946Z,52.32
2022-09-14T18:17:39.010Z,51.08
2022-09-14T18:19:41.162Z,52.04
2022-09-14T18:21:43.460Z,50.78
2022-09-14T18:23:50.084Z,50.05
2022-09-14T18:25:51.799Z,51.67
2022-09-14T18:27:53.400Z,49.81
2022-09-14T18:29:55.342Z,50.16
2022-09-14T18:31:57.009Z,49.72
2022-09-14T18:34:00.867Z,49.10
2022-09-14T18:36:05.487Z,49.66
2022-09-14T18:38:07.793Z,51.15
2022-09-14T18:40:09.989Z,50.72
2022-09-14T18:42:12.042Z,51.44
2022-09-14T18:44:13.621Z,50.19
2022-09-14T18:46:16.682Z,51.13
2022-09-14T18:48:18.634Z,50.14
2022-09-14T18:50:20.564Z,50.36
2022-09-14T18:52:22.190Z,50.00
2022-09-14T18:54:27.639Z,52.79
2022-09-14T18:56:33.174Z,57.06
2022-09-14T18:58:36.807Z,56.76
2022-09-14T19:00:45.919Z,59.20
2022-09-14T19:02:55.490Z,55.31
2022-09-14T19:04:58.217Z,53.80
2022-09-14T19:07:00.640Z,52.82
2022-09-14T19:09:02.908Z,56.99
2022-09-14T19:11:09.812Z,54.96
2022-09-14T19:13:11.580Z,53.61
2022-09-14T19:15:13.290Z,51.70
2022-09-14T19:17:15.159Z,51.24
2022-09-14T19:19:17.282Z,51.82
2022-09-14T19:21:24.546Z,50.57
2022-09-14T19:23:26.312Z,50.29
2022-09-14T19:25:28.030Z,52.95
2022-09-14T19:27:29.859Z,50.75
2022-09-14T19:29:32.888Z,51.96
2022-09-14T19:31:35.295Z,51.33
2022-09-14T19:33:38.009Z,51.99
2022-09-14T19:35:41.799Z,51.18
2022-09-14T19:37:43.470Z,51.42
2022-09-14T19:39:45.460Z,51.62
2022-09-14T19:41:47.534Z,52.48
2022-09-14T19:43:49.496Z,51.48
2022-09-14T19:45:51.288Z,51.12
2022-09-14T19:47:53.049Z,50.34
2022-09-14T19:49:54.770Z,50.96
2022-09-14T19:51:56.717Z,49.92
2022-09-14T19:54:00.603Z,51.12
2022-09-14T19:56:08.953Z,50.36
2022-09-14T19:58:10.530Z,50.47
2022-09-14T20:00:17.523Z,51.44
2022-09-14T20:02:19.862Z,51.69
2022-09-14T20:04:23.664Z,50.79
2022-09-14T20:06:31.877Z,50.67
2022-09-14T20:08:35.102Z,52.00
2022-09-14T20:10:36.692Z,49.92
2022-09-14T20:12:38.377Z,49.70
2022-09-14T20:14:39.953Z,48.96
2022-09-14T20:16:52.105Z,49.13
2022-09-14T20:18:54.172Z,48.88
2022-09-14T20:20:55.836Z,48.72
2022-09-14T20:22:57.424Z,48.90
2022-09-14T20:24:59.038Z,49.66
2022-09-14T20:27:02.148Z,49.26
2022-09-14T20:29:04.446Z,48.62
2022-09-14T20:31:11.153Z,48.53
2022-09-14T20:33:14.189Z,48.96
2022-09-14T20:35:16.107Z,48.71
2022-09-14T20:37:17.679Z,49.17
2022-09-14T20:39:21.765Z,49.18
2022-09-14T20:41:26.016Z,50.52
2022-09-14T20:43:31.072Z,51.96
2022-09-14T20:45:32.659Z,52.72
2022-09-14T20:47:34.251Z,53.07
2022-09-14T20:49:35.979Z,53.28
2022-09-14T20:51:38.184Z,54.25
2022-09-14T20:53:41.535Z,54.43
2022-09-14T20:55:43.106Z,54.92
2022-09-14T20:57:44.674Z,55.78
2022-09-14T20:59:46.550Z,52.71
2022-09-14T21:01:49.730Z,53.28
2022-09-14T21:03:51.706Z,52.69
2022-09-14T21:05:53.951Z,52.63
2022-09-14T21:10:17.114Z,50.38
2022-09-14T21:11:12.031Z,51.81
2022-09-14T21:12:18.863Z,50.80
2022-09-14T21:14:21.516Z,51.24
2022-09-14T21:16:32.645Z,50.14
2022-09-14T21:18:34.248Z,49.93
2022-09-14T21:20:37.300Z,48.99
2022-09-14T21:22:38.965Z,49.84
2022-09-14T21:24:40.557Z,50.46
2022-09-14T21:26:43.627Z,50.48
2022-09-14T21:28:45.661Z,50.68
2022-09-14T21:30:49.053Z,50.92
2022-09-14T21:32:51.345Z,51.52
2022-09-14T21:34:52.950Z,52.01
2022-09-14T21:36:54.658Z,51.50
2022-09-14T21:38:59.950Z,50.39
2022-09-14T21:41:02.639Z,50.13
2022-09-14T21:43:04.263Z,49.41
2022-09-14T21:45:06.266Z,48.45
2022-09-14T21:47:07.999Z,48.60
2022-09-14T21:49:18.609Z,48.17
2022-09-14T21:51:20.134Z,48.19
2022-09-14T21:53:21.765Z,48.79
2022-09-14T21:55:23.383Z,49.13
2022-09-14T21:57:25.005Z,48.91
2022-09-14T21:59:26.627Z,49.05
2022-09-14T22:01:29.730Z,49.43
2022-09-14T22:10:45.955Z,50.88
2022-09-14T22:12:48.611Z,51.07
2022-09-14T22:14:52.067Z,52.45
2022-09-14T22:16:54.393Z,50.90
2022-09-14T22:19:01.047Z,50.82
2022-09-14T22:21:03.753Z,51.91
2022-09-14T22:23:06.334Z,51.39
2022-09-14T22:25:08.540Z,51.91
2022-09-14T22:27:10.827Z,53.36
2022-09-14T22:29:14.508Z,53.77
2022-09-14T22:31:18.123Z,52.46
2022-09-14T22:33:22.332Z,51.68
2022-09-14T22:35:24.009Z,53.39
2022-09-14T22:37:25.696Z,56.55
2022-09-14T22:39:27.419Z,54.75
2022-09-14T22:41:29.559Z,54.59
2022-09-14T22:43:32.479Z,55.93
2022-09-14T22:45:34.333Z,56.08
2022-09-14T22:47:35.995Z,53.18
2022-09-14T22:49:37.627Z,51.22
2022-09-14T22:51:39.831Z,51.75
2022-09-14T22:53:41.615Z,51.42
2022-09-14T22:55:44.875Z,50.12
2022-09-14T22:57:46.498Z,50.55
2022-09-14T22:59:48.278Z,51.12
2022-09-14T23:01:49.993Z,51.69
2022-09-14T23:03:57.788Z,50.12
2022-09-14T23:05:59.995Z,51.19
2022-09-14T23:08:02.649Z,50.88
2022-09-14T23:10:04.552Z,52.68
2022-09-14T23:12:06.383Z,54.31
2022-09-14T23:14:08.418Z,56.65
2022-09-14T23:16:12.455Z,55.24
2022-09-14T23:18:14.544Z,57.77
2022-09-14T23:20:16.557Z,57.32
2022-09-14T23:22:18.364Z,55.11
2022-09-14T23:24:20.345Z,54.13
2022-09-14T23:26:22.863Z,55.64
2022-09-14T23:28:24.676Z,57.50
2022-09-14T23:30:26.363Z,55.62
2022-09-14T23:32:28.081Z,51.71
2022-09-14T23:34:29.845Z,50.57
2022-09-14T23:36:31.991Z,54.52
2022-09-14T23:38:35.405Z,56.85
2022-09-14T23:40:37.137Z,56.62
2022-09-14T23:42:38.933Z,55.72
2022-09-14T23:44:40.579Z,54.84
2022-09-14T23:46:42.229Z,53.10
2022-09-14T23:48:44.680Z,52.08
2022-09-14T23:50:46.301Z,51.62
2022-09-14T23:52:47.920Z,51.78
2022-09-14T23:54:50.180Z,52.56
2022-09-14T23:56:51.810Z,52.83
2022-09-14T23:58:53.431Z,53.47
